Station Historical Data
Daily Summary for March 2, 2017 Units:  Metric    English   Both
« Previous Day
Next Day »
Daily Weekly Monthly Yearly Custom
  High: Low: Average:
Temperature: 2.2 °C -5.2 °C -2.8 °C
Dew Point: -1.8 °C -10.8 °C -8.4 °C
Humidity: 84% 49% 66%
Wind Speed: 32.2km/h 1.6km/h 13.4km/h
Wind Gust: 48.3km/h - -
Wind- - West
Pressure: 1023.6 hPa 998.9 hPa -
Precipitation: 0 mm    
Historical Graphs
 
 
Tabular Data for March 2, 2017
Time Temperature Dew Point Pressure Wind Wind Speed Wind Gust Humidity Rainfall Rate (Hourly)
00:04 2.2 °C -1.8 °C 998.9 hPa West 14.5 km/h 29 km/h 75% 0 mm
00:09 2.1 °C -2.1 °C 998.9 hPa WSW 14.5 km/h 29 km/h 74% 0 mm
00:14 2 °C -1.9 °C 998.9 hPa West 12.9 km/h 27.4 km/h 75% 0 mm
00:19 1.8 °C -2.4 °C 999.2 hPa West 16.1 km/h 35.4 km/h 74% 0 mm
00:24 1.6 °C -2.8 °C 999.2 hPa West 20.9 km/h 45.1 km/h 73% 0 mm
00:29 1.4 °C -2.9 °C 999.2 hPa WNW 19.3 km/h 48.3 km/h 73% 0 mm
00:34 1.2 °C -2.9 °C 999.5 hPa WSW 9.7 km/h 29 km/h 74% 0 mm
00:39 1.1 °C -3.1 °C 999.9 hPa West 27.4 km/h 32.2 km/h 74% 0 mm
00:44 0.8 °C -3.7 °C 999.9 hPa West 17.7 km/h 37 km/h 72% 0 mm
00:49 0.7 °C -3.8 °C 999.9 hPa West 19.3 km/h 37 km/h 72% 0 mm
00:54 0.6 °C -4.3 °C 1000.2 hPa WSW 19.3 km/h 41.8 km/h 70% 0 mm
00:59 0.3 °C -4.7 °C 1000.2 hPa West 24.1 km/h 45.1 km/h 69% 0 mm
01:04 0.2 °C -4.4 °C 1000.2 hPa NW 12.9 km/h 37 km/h 71% 0 mm
01:09 0.2 °C -4.2 °C 1000.6 hPa WSW 11.3 km/h 30.6 km/h 72% 0 mm
01:14 -0.1 °C -4.3 °C 1000.6 hPa West 17.7 km/h 37 km/h 73% 0 mm
01:19 -0.2 °C -4.3 °C 1000.9 hPa West 19.3 km/h 37 km/h 74% 0 mm
01:24 -0.5 °C -4.2 °C 1000.9 hPa West 19.3 km/h 35.4 km/h 76% 0 mm
01:29 -0.9 °C -4.1 °C 1001.2 hPa West 17.7 km/h 35.4 km/h 79% 0 mm
01:34 -1.2 °C -4.2 °C 1001.2 hPa WSW 24.1 km/h 37 km/h 80% 0 mm
01:39 -1.4 °C -4.1 °C 1001.2 hPa WSW 8 km/h 27.4 km/h 82% 0 mm
01:44 -1.5 °C -4 °C 1001.6 hPa West 14.5 km/h 30.6 km/h 83% 0 mm
01:49 -1.6 °C -3.9 °C 1001.6 hPa West 14.5 km/h 30.6 km/h 84% 0 mm
01:54 -1.7 °C -4 °C 1001.6 hPa West 12.9 km/h 29 km/h 84% 0 mm
01:59 -1.7 °C -4.5 °C 1001.6 hPa West 9.7 km/h 35.4 km/h 81% 0 mm
02:04 -1.6 °C -5.4 °C 1001.6 hPa SSW 11.3 km/h 40.2 km/h 75% 0 mm
02:09 -1.6 °C -5.8 °C 1001.9 hPa WNW 11.3 km/h 38.6 km/h 73% 0 mm
02:14 -1.5 °C -5.7 °C 1002.3 hPa WNW 14.5 km/h 27.4 km/h 73% 0 mm
02:19 -1.7 °C -7 °C 1002.3 hPa West 17.7 km/h 46.7 km/h 67% 0 mm
02:24 -1.8 °C -7.7 °C 1002.6 hPa West 24.1 km/h 46.7 km/h 64% 0 mm
02:29 -2 °C -7.7 °C 1002.6 hPa West 22.5 km/h 46.7 km/h 65% 0 mm
02:34 -2.2 °C -7.7 °C 1002.9 hPa West 19.3 km/h 43.5 km/h 66% 0 mm
02:39 -2.4 °C -7.7 °C 1003.3 hPa NNW 12.9 km/h 48.3 km/h 67% 0 mm
02:44 -2.6 °C -8.1 °C 1003.3 hPa WSW 11.3 km/h 43.5 km/h 66% 0 mm
02:49 -2.7 °C -8.8 °C 1003.6 hPa West 22.5 km/h 43.5 km/h 63% 0 mm
02:54 -2.8 °C -8.7 °C 1003.6 hPa West 20.9 km/h 43.5 km/h 64% 0 mm
02:59 -2.9 °C -9.2 °C 1003.9 hPa West 20.9 km/h 38.6 km/h 62% 0 mm
03:04 -3 °C -9.1 °C 1004.3 hPa West 20.9 km/h 41.8 km/h 63% 0 mm
03:09 -3.1 °C -9.2 °C 1004.6 hPa West 19.3 km/h 41.8 km/h 63% 0 mm
03:14 -3.4 °C -8.1 °C 1004.6 hPa WNW 12.9 km/h 33.8 km/h 70% 0 mm
03:19 -3.8 °C -7.6 °C 1005 hPa WNW 12.9 km/h 35.4 km/h 75% 0 mm
03:24 -4.1 °C -7.7 °C 1005 hPa WNW 17.7 km/h 40.2 km/h 76% 0 mm
03:29 -4.1 °C -7.7 °C 1005.3 hPa West 17.7 km/h 40.2 km/h 76% 0 mm
03:34 -4 °C -7.9 °C 1005.3 hPa WNW 25.7 km/h 35.4 km/h 74% 0 mm
03:39 -4.3 °C -7.7 °C 1005.6 hPa WNW 32.2 km/h 32.2 km/h 77% 0 mm
03:44 -4.6 °C -7.6 °C 1006 hPa WSW 16.1 km/h 33.8 km/h 80% 0 mm
03:49 -4.8 °C -7.6 °C 1006 hPa West 12.9 km/h 32.2 km/h 81% 0 mm
03:54 -4.8 °C -7.7 °C 1006.3 hPa WNW 11.3 km/h 32.2 km/h 80% 0 mm
03:59 -4.8 °C -7.7 °C 1006.3 hPa West 17.7 km/h 33.8 km/h 80% 0 mm
04:04 -4.7 °C -7.8 °C 1006.7 hPa West 17.7 km/h 33.8 km/h 79% 0 mm
04:09 -4.7 °C -8.1 °C 1006.7 hPa West 17.7 km/h 32.2 km/h 77% 0 mm
04:14 -4.6 °C -8.4 °C 1007 hPa West 17.7 km/h 32.2 km/h 75% 0 mm
04:19 -4.6 °C -8.7 °C 1007.3 hPa West 24.1 km/h 32.2 km/h 73% 0 mm
04:24 -4.7 °C -8.6 °C 1007.3 hPa West 17.7 km/h 32.2 km/h 74% 0 mm
04:29 -4.7 °C -8.8 °C 1007.3 hPa WSW 22.5 km/h 32.2 km/h 73% 0 mm
04:34 -4.7 °C -9.2 °C 1007.7 hPa West 22.5 km/h 35.4 km/h 71% 0 mm
04:39 -4.8 °C -9.4 °C 1007.7 hPa West 27.4 km/h 33.8 km/h 70% 0 mm
04:44 -4.8 °C -9.2 °C 1007.7 hPa NW 11.3 km/h 32.2 km/h 71% 0 mm
04:49 -4.8 °C -9.1 °C 1008 hPa WSW 9.7 km/h 27.4 km/h 72% 0 mm
04:54 -4.8 °C -9.1 °C 1008.4 hPa West 16.1 km/h 33.8 km/h 72% 0 mm
04:59 -4.9 °C -9.1 °C 1008.4 hPa West 17.7 km/h 40.2 km/h 73% 0 mm
05:04 -4.9 °C -9.2 °C 1008.7 hPa West 17.7 km/h 40.2 km/h 72% 0 mm
05:09 -5 °C -8.9 °C 1008.7 hPa West 17.7 km/h 33.8 km/h 74% 0 mm
05:14 -5.1 °C -9 °C 1008.7 hPa West 17.7 km/h 32.2 km/h 74% 0 mm
05:19 -5.1 °C -8.8 °C 1009.4 hPa West 19.3 km/h 40.2 km/h 75% 0 mm
05:24 -5.1 °C -9 °C 1009.4 hPa West 17.7 km/h 40.2 km/h 74% 0 mm
05:29 -5 °C -8.9 °C 1009.4 hPa West 24.1 km/h 33.8 km/h 74% 0 mm
05:34 -5.1 °C -9.6 °C 1009.7 hPa West 11.3 km/h 32.2 km/h 71% 0 mm
05:39 -5.1 °C -9.5 °C 1009.7 hPa WNW 14.5 km/h 35.4 km/h 71% 0 mm
05:44 -5.1 °C -9.6 °C 1009.7 hPa SW 14.5 km/h 35.4 km/h 71% 0 mm
05:49 -5.1 °C -9.4 °C 1010 hPa West 9.7 km/h 33.8 km/h 72% 0 mm
05:54 -5.1 °C -9.4 °C 1010 hPa WNW 9.7 km/h 24.1 km/h 72% 0 mm
05:59 -5.1 °C -9.6 °C 1010 hPa West 12.9 km/h 27.4 km/h 71% 0 mm
06:04 -5.1 °C -9.5 °C 1010.4 hPa West 16.1 km/h 30.6 km/h 71% 0 mm
06:09 -5.1 °C -9.7 °C 1010.4 hPa West 17.7 km/h 33.8 km/h 70% 0 mm
06:14 -5.1 °C -9.7 °C 1010.7 hPa West 16.1 km/h 33.8 km/h 70% 0 mm
06:19 -5.1 °C -9.7 °C 1010.7 hPa West 17.7 km/h 32.2 km/h 70% 0 mm
06:24 -5.1 °C -9.7 °C 1011.1 hPa West 19.3 km/h 33.8 km/h 70% 0 mm
06:29 -5.1 °C -9.6 °C 1011.1 hPa WSW 11.3 km/h 30.6 km/h 71% 0 mm
06:34 -5.2 °C -9.6 °C 1011.1 hPa West 16.1 km/h 33.8 km/h 71% 0 mm
06:39 -5.2 °C -9.6 °C 1011.4 hPa West 17.7 km/h 35.4 km/h 71% 0 mm
06:44 -5.2 °C -9.7 °C 1011.4 hPa WSW 14.5 km/h 25.7 km/h 71% 0 mm
06:49 -5.2 °C -9.6 °C 1011.4 hPa WNW 16.1 km/h 30.6 km/h 71% 0 mm
06:54 -5.2 °C -9.4 °C 1011.4 hPa SSW 9.7 km/h 33.8 km/h 72% 0 mm
06:59 -5.2 °C -9.4 °C 1011.7 hPa West 12.9 km/h 25.7 km/h 72% 0 mm
07:04 -5.2 °C -9.6 °C 1011.7 hPa West 14.5 km/h 25.7 km/h 71% 0 mm
07:09 -5.2 °C -9.4 °C 1012.1 hPa WNW 14.5 km/h 25.7 km/h 72% 0 mm
07:14 -5.1 °C -9.3 °C 1012.1 hPa West 12.9 km/h 25.7 km/h 72% 0 mm
07:19 -5 °C -9.4 °C 1012.4 hPa West 12.9 km/h 32.2 km/h 71% 0 mm
07:24 -4.9 °C -9.4 °C 1012.4 hPa WNW 11.3 km/h 29 km/h 71% 0 mm
07:29 -4.8 °C -9.3 °C 1012.4 hPa NW 17.7 km/h 22.5 km/h 71% 0 mm
07:34 -4.8 °C -9.1 °C 1012.8 hPa WSW 19.3 km/h 24.1 km/h 72% 0 mm
07:39 -4.8 °C -9.1 °C 1012.8 hPa WNW 14.5 km/h 29 km/h 72% 0 mm
07:44 -4.8 °C -9.1 °C 1013.1 hPa West 22.5 km/h 24.1 km/h 72% 0 mm
07:49 -4.8 °C -9.1 °C 1013.1 hPa West 12.9 km/h 25.7 km/h 72% 0 mm
07:54 -4.8 °C -9.1 °C 1013.1 hPa West 9.7 km/h 22.5 km/h 72% 0 mm
07:59 -4.8 °C -9.1 °C 1013.4 hPa WNW 4.8 km/h 20.9 km/h 72% 0 mm
08:04 -4.9 °C -9.2 °C 1013.4 hPa WSW 8 km/h 24.1 km/h 72% 0 mm
08:09 -4.9 °C -9.1 °C 1013.4 hPa West 12.9 km/h 24.1 km/h 73% 0 mm
08:14 -4.9 °C -9.2 °C 1013.4 hPa West 12.9 km/h 27.4 km/h 72% 0 mm
08:19 -4.7 °C -9 °C 1013.4 hPa West 12.9 km/h 27.4 km/h 72% 0 mm
08:24 -4.7 °C -9.2 °C 1013.8 hPa West 12.9 km/h 29 km/h 71% 0 mm
08:29 -4.6 °C -8.9 °C 1013.8 hPa West 12.9 km/h 29 km/h 72% 0 mm
08:34 -4.6 °C -9 °C 1014.1 hPa West 14.5 km/h 30.6 km/h 71% 0 mm
08:39 -4.4 °C -8.9 °C 1014.1 hPa WNW 8 km/h 22.5 km/h 71% 0 mm
08:44 -4.3 °C -8.8 °C 1014.1 hPa West 11.3 km/h 22.5 km/h 71% 0 mm
08:49 -4.3 °C -8.6 °C 1014.4 hPa WNW 16.1 km/h 29 km/h 72% 0 mm
08:54 -4.2 °C -8.4 °C 1014.4 hPa West 22.5 km/h 29 km/h 72% 0 mm
08:59 -4.1 °C -8.3 °C 1014.4 hPa NW 14.5 km/h 27.4 km/h 72% 0 mm
09:04 -3.9 °C -8.6 °C 1014.4 hPa West 12.9 km/h 27.4 km/h 70% 0 mm
09:09 -4 °C -8.7 °C 1014.4 hPa West 17.7 km/h 30.6 km/h 70% 0 mm
09:14 -4 °C -8.8 °C 1014.8 hPa West 17.7 km/h 33.8 km/h 69% 0 mm
09:19 -3.9 °C -8.8 °C 1014.8 hPa West 19.3 km/h 33.8 km/h 69% 0 mm
09:24 -3.7 °C -8.3 °C 1014.8 hPa West 17.7 km/h 33.8 km/h 70% 0 mm
09:29 -3.6 °C -8.4 °C 1015.1 hPa WNW 14.5 km/h 29 km/h 69% 0 mm
09:34 -3.8 °C -8.6 °C 1015.1 hPa WNW 16.1 km/h 35.4 km/h 69% 0 mm
09:39 -3.6 °C -8.4 °C 1015.1 hPa WSW 11.3 km/h 29 km/h 69% 0 mm
09:44 -3.3 °C -8.4 °C 1015.5 hPa WNW 19.3 km/h 30.6 km/h 68% 0 mm
09:49 -3.3 °C -8.2 °C 1015.5 hPa WNW 12.9 km/h 30.6 km/h 69% 0 mm
09:54 -2.9 °C -8.2 °C 1015.5 hPa WSW 11.3 km/h 27.4 km/h 67% 0 mm
09:59 -2.6 °C -8.1 °C 1015.8 hPa West 9.7 km/h 33.8 km/h 66% 0 mm
10:04 -2.8 °C -8.4 °C 1015.8 hPa West 8 km/h 24.1 km/h 65% 0 mm
10:09 -2.4 °C -8.1 °C 1015.8 hPa NW 8 km/h 25.7 km/h 65% 0 mm
10:14 -2.3 °C -8.6 °C 1015.8 hPa SW 8 km/h 32.2 km/h 62% 0 mm
10:19 -2.3 °C -8.4 °C 1015.8 hPa West 19.3 km/h 25.7 km/h 63% 0 mm
10:24 -2.4 °C -8.6 °C 1015.8 hPa West 16.1 km/h 33.8 km/h 63% 0 mm
10:29 -2.5 °C -8.6 °C 1015.8 hPa West 16.1 km/h 33.8 km/h 63% 0 mm
10:34 -2.1 °C -7.6 °C 1015.8 hPa West 14.5 km/h 27.4 km/h 66% 0 mm
10:39 -1.6 °C -7.3 °C 1015.8 hPa West 14.5 km/h 29 km/h 65% 0 mm
10:44 -1.6 °C -7.3 °C 1015.8 hPa WNW 8 km/h 27.4 km/h 65% 0 mm
10:49 -1 °C -6.6 °C 1015.8 hPa West 12.9 km/h 24.1 km/h 66% 0 mm
10:54 -0.9 °C -7.3 °C 1016.1 hPa West 12.9 km/h 25.7 km/h 62% 0 mm
10:59 -0.7 °C -7.3 °C 1016.1 hPa WSW 14.5 km/h 22.5 km/h 61% 0 mm
11:04 -0.3 °C -6.9 °C 1016.1 hPa West 4.8 km/h 25.7 km/h 61% 0 mm
11:09 -0.4 °C -7.9 °C 1016.1 hPa WNW 9.7 km/h 24.1 km/h 57% 0 mm
11:14 -0.6 °C -8.1 °C 1016.1 hPa WSW 3.2 km/h 27.4 km/h 57% 0 mm
11:19 0.6 °C -5.7 °C 1016.1 hPa West 8 km/h 20.9 km/h 63% 0 mm
11:24 -0.3 °C -7.4 °C 1016.1 hPa WNW 11.3 km/h 25.7 km/h 59% 0 mm
11:29 -0.9 °C -8.1 °C 1016.5 hPa WNW 12.9 km/h 25.7 km/h 58% 0 mm
11:34 -0.7 °C -7.9 °C 1016.5 hPa WNW 6.4 km/h 25.7 km/h 58% 0 mm
11:39 -0.4 °C -7.7 °C 1016.5 hPa West 14.5 km/h 27.4 km/h 58% 0 mm
11:44 -0.6 °C -8.1 °C 1016.5 hPa West 12.9 km/h 30.6 km/h 57% 0 mm
11:49 -0.3 °C -7.3 °C 1016.5 hPa West 12.9 km/h 30.6 km/h 59% 0 mm
11:54 0.2 °C -7.3 °C 1016.8 hPa West 12.9 km/h 30.6 km/h 57% 0 mm
11:59 0.2 °C -8.2 °C 1016.8 hPa SW 9.7 km/h 25.7 km/h 53% 0 mm
12:04 -0.1 °C -8.3 °C 1016.8 hPa SW 9.7 km/h 25.7 km/h 54% 0 mm
12:09 -0.7 °C -9.6 °C 1017.2 hPa West 11.3 km/h 37 km/h 51% 0 mm
12:14 -0.3 °C -9 °C 1017.2 hPa NW 11.3 km/h 22.5 km/h 52% 0 mm
12:19 -0.6 °C -9.2 °C 1017.2 hPa West 14.5 km/h 30.6 km/h 52% 0 mm
12:24 -0.3 °C -8.3 °C 1017.2 hPa West 17.7 km/h 29 km/h 55% 0 mm
12:29 -0.2 °C -8.7 °C 1017.2 hPa WSW 12.9 km/h 29 km/h 53% 0 mm
12:34 -0.4 °C -9.3 °C 1017.2 hPa West 12.9 km/h 29 km/h 51% 0 mm
12:39 -0.2 °C -8.7 °C 1017.2 hPa West 14.5 km/h 24.1 km/h 53% 0 mm
12:44 -0.3 °C -9.8 °C 1017.2 hPa West 12.9 km/h 27.4 km/h 49% 0 mm
12:49 -0.4 °C -9.1 °C 1017.2 hPa West 14.5 km/h 27.4 km/h 52% 0 mm
12:54 -0.6 °C -9.2 °C 1017.2 hPa WNW 16.1 km/h 30.6 km/h 52% 0 mm
12:59 -0.2 °C -8.7 °C 1017.2 hPa WSW 11.3 km/h 32.2 km/h 53% 0 mm
13:04 -0.6 °C -9.3 °C 1017.2 hPa WNW 11.3 km/h 25.7 km/h 52% 0 mm
13:09 -0.2 °C -8.6 °C 1017.2 hPa NW 16.1 km/h 25.7 km/h 53% 0 mm
13:14 -0.3 °C -8.2 °C 1017.2 hPa WSW 12.9 km/h 24.1 km/h 55% 0 mm
13:19 0.1 °C -9.2 °C 1017.2 hPa WSW 14.5 km/h 24.1 km/h 50% 0 mm
13:24 0.3 °C -8.7 °C 1017.2 hPa West 16.1 km/h 29 km/h 51% 0 mm
13:29 -0.2 °C -9.4 °C 1017.2 hPa WNW 12.9 km/h 29 km/h 50% 0 mm
13:34 -0.8 °C -9.5 °C 1017.5 hPa West 14.5 km/h 24.1 km/h 52% 0 mm
13:39 -0.6 °C -8.6 °C 1017.5 hPa West 12.9 km/h 24.1 km/h 55% 0 mm
13:44 -0.9 °C -9.3 °C 1017.5 hPa WNW 12.9 km/h 24.1 km/h 53% 0 mm
13:49 -1 °C -8.9 °C 1017.5 hPa WNW 14.5 km/h 27.4 km/h 55% 0 mm
13:54 -0.4 °C -8.8 °C 1017.5 hPa WNW 14.5 km/h 30.6 km/h 53% 0 mm
13:59 -0.2 °C -9.4 °C 1017.8 hPa WNW 14.5 km/h 30.6 km/h 50% 0 mm
14:04 -0.9 °C -9.3 °C 1017.8 hPa West 9.7 km/h 29 km/h 53% 0 mm
14:09 -0.9 °C -8.6 °C 1017.8 hPa West 11.3 km/h 29 km/h 56% 0 mm
14:14 -0.9 °C -9.1 °C 1017.8 hPa WSW 14.5 km/h 30.6 km/h 54% 0 mm
14:19 -0.9 °C -8.6 °C 1017.8 hPa SW 14.5 km/h 24.1 km/h 56% 0 mm
14:24 -0.8 °C -8.5 °C 1017.8 hPa West 9.7 km/h 30.6 km/h 56% 0 mm
14:29 -0.4 °C -7.9 °C 1017.8 hPa West 11.3 km/h 24.1 km/h 57% 0 mm
14:34 -0.8 °C -9.2 °C 1017.8 hPa West 16.1 km/h 27.4 km/h 53% 0 mm
14:39 -1.2 °C -9.3 °C 1017.8 hPa West 14.5 km/h 27.4 km/h 54% 0 mm
14:44 -0.6 °C -9 °C 1017.8 hPa West 14.5 km/h 27.4 km/h 53% 0 mm
14:49 -0.8 °C -9.4 °C 1018.2 hPa West 14.5 km/h 27.4 km/h 52% 0 mm
14:54 -0.7 °C -8.4 °C 1017.8 hPa West 12.9 km/h 25.7 km/h 56% 0 mm
14:59 -0.5 °C -8.2 °C 1018.2 hPa West 11.3 km/h 22.5 km/h 56% 0 mm
15:04 -0.8 °C -9 °C 1018.2 hPa NW 20.9 km/h 27.4 km/h 54% 0 mm
15:09 -0.7 °C -8.6 °C 1018.2 hPa West 14.5 km/h 27.4 km/h 55% 0 mm
15:14 -0.7 °C -8.7 °C 1018.5 hPa WNW 12.9 km/h 24.1 km/h 55% 0 mm
15:19 -1 °C -8.9 °C 1018.5 hPa NNW 9.7 km/h 22.5 km/h 55% 0 mm
15:24 -0.9 °C -8.9 °C 1018.5 hPa West 4.8 km/h 17.7 km/h 55% 0 mm
15:29 -1.2 °C -9.1 °C 1018.5 hPa WSW 14.5 km/h 25.7 km/h 55% 0 mm
15:34 -1.2 °C -9.1 °C 1018.5 hPa West 19.3 km/h 27.4 km/h 55% 0 mm
15:39 -1.2 °C -9.1 °C 1018.5 hPa WSW 4.8 km/h 25.7 km/h 55% 0 mm
15:44 -1.1 °C -8.3 °C 1018.5 hPa West 11.3 km/h 25.7 km/h 58% 0 mm
15:49 -1.2 °C -8.4 °C 1018.5 hPa West 11.3 km/h 22.5 km/h 58% 0 mm
15:54 -1.3 °C -8.1 °C 1018.5 hPa WSW 9.7 km/h 25.7 km/h 60% 0 mm
15:59 -1.4 °C -7.4 °C 1018.5 hPa West 8 km/h 27.4 km/h 64% 0 mm
16:04 -1.4 °C -7 °C 1018.5 hPa West 8 km/h 20.9 km/h 66% 0 mm
16:09 -1.5 °C -7.4 °C 1018.8 hPa West 12.9 km/h 24.1 km/h 64% 0 mm
16:19 -1.7 °C -7.2 °C 1018.8 hPa WSW 14.5 km/h 27.4 km/h 66% 0 mm
16:24 -1.7 °C -7.2 °C 1018.8 hPa WSW 12.9 km/h 25.7 km/h 66% 0 mm
16:29 -1.7 °C -7 °C 1018.8 hPa WSW 12.9 km/h 25.7 km/h 67% 0 mm
16:34 -1.8 °C -7.3 °C 1018.8 hPa WSW 12.9 km/h 27.4 km/h 66% 0 mm
16:39 -1.9 °C -7.3 °C 1019.2 hPa SW 11.3 km/h 25.7 km/h 67% 0 mm
16:44 -2.2 °C -7.3 °C 1019.2 hPa West 12.9 km/h 25.7 km/h 68% 0 mm
16:49 -2.3 °C -7.2 °C 1019.2 hPa SW 12.9 km/h 29 km/h 69% 0 mm
16:54 -2.3 °C -7.3 °C 1019.2 hPa West 9.7 km/h 27.4 km/h 69% 0 mm
16:59 -2.3 °C -7.2 °C 1019.2 hPa WNW 11.3 km/h 24.1 km/h 69% 0 mm
17:04 -2.2 °C -7.5 °C 1019.5 hPa SW 6.4 km/h 22.5 km/h 67% 0 mm
17:09 -2.2 °C -7.5 °C 1019.5 hPa NW 8 km/h 20.9 km/h 67% 0 mm
17:14 -2.3 °C -7.6 °C 1019.5 hPa West 16.1 km/h 24.1 km/h 67% 0 mm
17:19 -2.3 °C -7.6 °C 1019.5 hPa West 12.9 km/h 30.6 km/h 67% 0 mm
17:24 -2.4 °C -7.9 °C 1019.9 hPa West 14.5 km/h 30.6 km/h 66% 0 mm
17:29 -2.5 °C -7.8 °C 1019.9 hPa WSW 12.9 km/h 25.7 km/h 67% 0 mm
17:34 -2.5 °C -7.8 °C 1019.9 hPa WSW 11.3 km/h 20.9 km/h 67% 0 mm
17:39 -2.5 °C -7.8 °C 1020.2 hPa West 9.7 km/h 24.1 km/h 67% 0 mm
17:44 -2.7 °C -7.9 °C 1020.2 hPa West 12.9 km/h 22.5 km/h 67% 0 mm
17:49 -2.8 °C -8.1 °C 1020.2 hPa WNW 22.5 km/h 24.1 km/h 67% 0 mm
17:54 -2.8 °C -7.9 °C 1020.2 hPa West 12.9 km/h 25.7 km/h 68% 0 mm
17:59 -2.8 °C -7.7 °C 1020.2 hPa West 12.9 km/h 27.4 km/h 69% 0 mm
18:04 -2.8 °C -7.7 °C 1020.2 hPa WSW 12.9 km/h 20.9 km/h 69% 0 mm
18:09 -2.9 °C -8 °C 1020.5 hPa SW 8 km/h 24.1 km/h 68% 0 mm
18:14 -2.8 °C -7.7 °C 1020.5 hPa West 17.7 km/h 30.6 km/h 69% 0 mm
18:19 -2.8 °C -8.1 °C 1020.5 hPa West 12.9 km/h 24.1 km/h 67% 0 mm
18:24 -2.8 °C -8.1 °C 1020.9 hPa West 11.3 km/h 24.1 km/h 67% 0 mm
18:29 -2.8 °C -8.1 °C 1020.9 hPa West 9.7 km/h 19.3 km/h 67% 0 mm
18:34 -2.8 °C -8.3 °C 1020.9 hPa West 9.7 km/h 19.3 km/h 66% 0 mm
18:39 -2.8 °C -8.3 °C 1020.9 hPa WSW 9.7 km/h 19.3 km/h 66% 0 mm
18:44 -2.8 °C -8.5 °C 1021.2 hPa West 11.3 km/h 25.7 km/h 65% 0 mm
18:49 -2.9 °C -9.4 °C 1021.2 hPa NW 9.7 km/h 27.4 km/h 61% 0 mm
18:54 -2.9 °C -9.2 °C 1021.2 hPa West 22.5 km/h 30.6 km/h 62% 0 mm
18:59 -2.9 °C -8.9 °C 1021.6 hPa West 12.9 km/h 30.6 km/h 63% 0 mm
19:04 -2.9 °C -8.8 °C 1021.6 hPa West 12.9 km/h 27.4 km/h 64% 0 mm
19:09 -3 °C -8.8 °C 1021.6 hPa West 8 km/h 25.7 km/h 64% 0 mm
19:14 -3 °C -8.7 °C 1021.6 hPa West 6.4 km/h 19.3 km/h 65% 0 mm
19:19 -3.1 °C -9.1 °C 1021.9 hPa West 9.7 km/h 24.1 km/h 63% 0 mm
19:24 -3.1 °C -9.3 °C 1021.9 hPa WSW 11.3 km/h 22.5 km/h 62% 0 mm
19:29 -3.1 °C -9.6 °C 1021.9 hPa West 12.9 km/h 22.5 km/h 61% 0 mm
19:34 -3.1 °C -9.6 °C 1021.9 hPa West 12.9 km/h 24.1 km/h 61% 0 mm
19:39 -3.2 °C -9.6 °C 1021.9 hPa West 12.9 km/h 24.1 km/h 61% 0 mm
19:44 -3.3 °C -9.7 °C 1021.9 hPa West 11.3 km/h 29 km/h 61% 0 mm
19:49 -3.3 °C -9.6 °C 1022.2 hPa West 12.9 km/h 22.5 km/h 62% 0 mm
19:54 -3.3 °C -9.6 °C 1022.2 hPa WSW 14.5 km/h 27.4 km/h 62% 0 mm
19:59 -3.3 °C -9.6 °C 1022.2 hPa West 12.9 km/h 27.4 km/h 62% 0 mm
20:04 -3.4 °C -9.4 °C 1022.2 hPa West 12.9 km/h 25.7 km/h 63% 0 mm
20:09 -3.4 °C -9.7 °C 1022.6 hPa West 11.3 km/h 20.9 km/h 62% 0 mm
20:14 -3.5 °C -9.6 °C 1022.6 hPa WNW 17.7 km/h 24.1 km/h 63% 0 mm
20:19 -3.6 °C -9.6 °C 1022.6 hPa West 16.1 km/h 19.3 km/h 63% 0 mm
20:24 -3.6 °C -9.8 °C 1022.6 hPa West 6.4 km/h 22.5 km/h 62% 0 mm
20:29 -3.7 °C -9.9 °C 1022.6 hPa WNW 8 km/h 19.3 km/h 62% 0 mm
20:34 -3.7 °C -9.7 °C 1022.6 hPa West 11.3 km/h 20.9 km/h 63% 0 mm
20:39 -3.8 °C -9.8 °C 1022.6 hPa West 9.7 km/h 20.9 km/h 63% 0 mm
20:44 -3.8 °C -9.8 °C 1022.6 hPa West 9.7 km/h 19.3 km/h 63% 0 mm
20:49 -3.9 °C -9.9 °C 1022.6 hPa West 11.3 km/h 25.7 km/h 63% 0 mm
20:54 -3.8 °C -9.7 °C 1022.9 hPa West 11.3 km/h 25.7 km/h 64% 0 mm
20:59 -3.9 °C -9.7 °C 1022.9 hPa West 3.2 km/h 20.9 km/h 64% 0 mm
21:04 -3.9 °C -9.7 °C 1022.9 hPa West 9.7 km/h 24.1 km/h 64% 0 mm
21:09 -3.9 °C -9.9 °C 1022.9 hPa West 16.1 km/h 24.1 km/h 63% 0 mm
21:14 -4 °C -10.2 °C 1022.9 hPa WNW 19.3 km/h 24.1 km/h 62% 0 mm
21:19 -4.1 °C -10.1 °C 1022.9 hPa North 11.3 km/h 24.1 km/h 63% 0 mm
21:24 -4.1 °C -10.1 °C 1023.2 hPa WSW 14.5 km/h 17.7 km/h 63% 0 mm
21:29 -4.1 °C -10.1 °C 1023.2 hPa SW 9.7 km/h 20.9 km/h 63% 0 mm
21:34 -4.2 °C -10.2 °C 1023.2 hPa West 11.3 km/h 22.5 km/h 63% 0 mm
21:39 -4.2 °C -10.2 °C 1023.2 hPa WNW 11.3 km/h 25.7 km/h 63% 0 mm
21:44 -4.3 °C -10.5 °C 1023.2 hPa WNW 12.9 km/h 25.7 km/h 62% 0 mm
21:49 -4.3 °C -10.3 °C 1023.2 hPa WNW 8 km/h 20.9 km/h 63% 0 mm
21:54 -4.3 °C -10.3 °C 1023.2 hPa NW 9.7 km/h 24.1 km/h 63% 0 mm
21:59 -4.4 °C -10.4 °C 1023.2 hPa SW 4.8 km/h 24.1 km/h 63% 0 mm
22:04 -4.5 °C -10.3 °C 1023.2 hPa WNW 4.8 km/h 20.9 km/h 64% 0 mm
22:09 -4.6 °C -10.4 °C 1023.2 hPa WNW 11.3 km/h 20.9 km/h 64% 0 mm
22:14 -4.7 °C -10.3 °C 1023.2 hPa WNW 11.3 km/h 20.9 km/h 65% 0 mm
22:19 -4.8 °C -10.3 °C 1023.2 hPa WNW 9.7 km/h 19.3 km/h 65% 0 mm
22:24 -4.8 °C -10.2 °C 1023.2 hPa West 8 km/h 14.5 km/h 66% 0 mm
22:29 -4.8 °C -10.2 °C 1023.2 hPa WNW 4.8 km/h 14.5 km/h 66% 0 mm
22:34 -4.8 °C -10.2 °C 1023.2 hPa NW 6.4 km/h 14.5 km/h 66% 0 mm
22:39 -4.8 °C -10.2 °C 1023.2 hPa WNW 8 km/h 17.7 km/h 66% 0 mm
22:44 -4.7 °C -10.1 °C 1023.2 hPa WNW 8 km/h 17.7 km/h 66% 0 mm
22:49 -4.7 °C -10.3 °C 1023.2 hPa WNW 17.7 km/h 17.7 km/h 65% 0 mm
22:54 -4.7 °C -10.3 °C 1023.2 hPa NW 11.3 km/h 17.7 km/h 65% 0 mm
22:59 -4.8 °C -10.3 °C 1023.2 hPa West 11.3 km/h 16.1 km/h 65% 0 mm
23:04 -4.9 °C -10.4 °C 1023.2 hPa NW 3.2 km/h 17.7 km/h 65% 0 mm
23:09 -4.9 °C -10.5 °C 1023.2 hPa WNW 8 km/h 17.7 km/h 65% 0 mm
23:14 -4.9 °C -10.7 °C 1023.2 hPa NW 6.4 km/h 14.5 km/h 64% 0 mm
23:19 -5 °C -10.8 °C 1023.2 hPa NW 6.4 km/h 12.9 km/h 64% 0 mm
23:24 -5.1 °C -10.8 °C 1023.2 hPa NW 6.4 km/h 19.3 km/h 64% 0 mm
23:29 -5.2 °C -10.7 °C 1023.2 hPa NW 8 km/h 19.3 km/h 65% 0 mm
23:34 -5.2 °C -10.7 °C 1023.2 hPa NNW 6.4 km/h 12.9 km/h 65% 0 mm
23:39 -5.2 °C -10.7 °C 1023.6 hPa WNW 3.2 km/h 12.9 km/h 65% 0 mm
23:44 -5.2 °C -10.6 °C 1023.6 hPa NW 6.4 km/h 9.7 km/h 66% 0 mm
23:49 -5.1 °C -10.5 °C 1023.2 hPa WNW 4.8 km/h 12.9 km/h 66% 0 mm
23:54 -5.1 °C -10.4 °C 1023.2 hPa WNW 6.4 km/h 14.5 km/h 66% 0 mm
23:59 -5 °C -10.4 °C 1023.2 hPa NW 1.6 km/h 9.7 km/h 66% 0 mm
Buffalo, New York, USA
Compliments of Weather Underground - 2.5 mb